Time;durP1;ratioP1;P1;durP2;ratioP2;P2;SDS_P1;SDS_P2;PMS_P1;PMS_P2;Temp;Humidity;BMP_temperature;BMP_pressure;BME280_temperature;BME280_humidity;BME280_pressure;Samples;Min_cycle;Max_cycle;Signal;HPM_P1;HPM_P2
2022/06/25 00:02:23;;;;;;;6.65;3.67;;;;;;;17.56;68.79;99367.72;1681266;84;21080;-65
2022/06/25 00:07:36;;;;;;;6.83;4.47;;;;;;;17.59;68.79;99371.73;1696830;83;21059;-65
2022/06/25 00:10:02;;;;;;;8.73;4.15;;;;;;;17.58;68.49;99366.77;1691199;84;21151;-67
2022/06/25 00:12:33;;;;;;;9.50;4.78;;;;;;;17.55;68.65;99368.91;1688065;84;21008;-66
2022/06/25 00:15:04;;;;;;;10.50;3.87;;;;;;;17.54;68.65;99369.28;1692966;84;21088;-67
2022/06/25 00:17:32;;;;;;;7.67;3.95;;;;;;;17.48;68.75;99368.20;1697094;84;21592;-66
2022/06/25 00:20:01;;;;;;;6.22;4.12;;;;;;;17.45;68.65;99370.30;1680984;84;21069;-65
2022/06/25 00:22:30;;;;;;;7.20;3.83;;;;;;;17.43;68.90;99363.52;1696370;83;21189;-65
2022/06/25 00:24:56;;;;;;;4.62;3.75;;;;;;;17.40;69.04;99367.25;1697348;83;21505;-64
2022/06/25 00:27:23;;;;;;;6.85;4.42;;;;;;;17.39;69.15;99370.41;1680867;84;21129;-65
2022/06/25 00:29:49;;;;;;;6.28;3.80;;;;;;;17.36;69.16;99365.58;1695728;83;21535;-65
2022/06/25 00:32:16;;;;;;;4.85;3.83;;;;;;;17.35;68.95;99368.16;1690810;84;21017;-66
2022/06/25 00:34:43;;;;;;;7.85;4.00;;;;;;;17.31;69.12;99365.89;1712874;83;21537;-65
2022/06/25 00:37:11;;;;;;;8.53;4.20;;;;;;;17.25;69.38;99367.58;1701326;83;21057;-65
2022/06/25 00:39:39;;;;;;;6.65;3.58;;;;;;;17.23;69.61;99368.53;1722739;83;21086;-66
2022/06/25 00:42:10;;;;;;;9.98;4.25;;;;;;;17.20;69.63;99368.45;1715483;82;21016;-65
2022/06/25 00:44:37;;;;;;;7.70;3.90;;;;;;;17.18;69.62;99368.83;1726960;83;21105;-66
2022/06/25 00:47:11;;;;;;;4.95;3.90;;;;;;;17.13;69.81;99372.73;1714041;83;21012;-65
2022/06/25 00:49:38;;;;;;;8.03;3.58;;;;;;;17.10;69.99;99369.30;1708478;83;21027;-66
2022/06/25 00:52:12;;;;;;;4.15;3.47;;;;;;;17.07;70.08;99371.40;1710770;82;21086;-65
2022/06/25 00:54:41;;;;;;;7.37;3.67;;;;;;;17.04;70.33;99371.53;1709901;82;21496;-65
2022/06/25 00:57:09;;;;;;;5.17;3.58;;;;;;;17.03;70.44;99373.30;1708416;84;21060;-65
2022/06/25 00:59:44;;;;;;;7.00;3.90;;;;;;;17.02;70.23;99371.70;1708577;84;21488;-66
2022/06/25 01:02:10;;;;;;;5.15;3.75;;;;;;;17.01;70.04;99375.05;1714278;82;21023;-66
2022/06/25 01:04:38;;;;;;;6.12;3.87;;;;;;;16.99;69.80;99375.22;1725804;81;20996;-65
2022/06/25 01:07:05;;;;;;;12.18;4.53;;;;;;;16.97;70.12;99378.38;1710033;83;21021;-66
2022/06/25 01:09:32;;;;;;;8.98;4.10;;;;;;;16.93;70.27;99376.09;1710647;82;21078;-66
2022/06/25 01:12:01;;;;;;;3.70;3.40;;;;;;;16.93;70.37;99380.27;1702579;83;21052;-65
2022/06/25 01:14:31;;;;;;;7.67;3.75;;;;;;;16.91;70.68;99375.65;1701717;84;21016;-65
2022/06/25 01:17:06;;;;;;;6.83;4.00;;;;;;;16.88;70.87;99374.99;1726543;83;21036;-66
2022/06/25 01:19:33;;;;;;;5.53;3.77;;;;;;;16.88;71.01;99374.99;1700944;83;21490;-66
2022/06/25 01:22:04;;;;;;;5.83;3.85;;;;;;;16.87;71.01;99374.18;1714899;83;21502;-66
2022/06/25 01:24:31;;;;;;;5.35;3.52;;;;;;;16.87;71.06;99375.57;1710439;82;21638;-66
2022/06/25 01:27:00;;;;;;;8.70;3.80;;;;;;;16.89;70.98;99378.80;1708375;84;21075;-65
2022/06/25 01:29:28;;;;;;;7.67;4.62;;;;;;;16.89;70.73;99376.59;1708613;84;21147;-65
2022/06/25 01:31:55;;;;;;;10.93;3.77;;;;;;;16.86;70.87;99374.55;1708193;84;21109;-66
2022/06/25 01:34:23;;;;;;;5.67;3.90;;;;;;;16.81;71.04;99382.61;1708922;83;21021;-65
2022/06/25 01:36:49;;;;;;;7.55;4.45;;;;;;;16.79;71.21;99383.55;1710381;83;21572;-66
2022/06/25 01:39:16;;;;;;;7.45;4.53;;;;;;;16.73;71.07;99378.08;1710135;83;21590;-66
2022/06/25 01:41:43;;;;;;;6.00;3.52;;;;;;;16.71;71.23;99384.00;1709628;83;21068;-65
2022/06/25 01:44:12;;;;;;;4.20;3.75;;;;;;;16.71;71.56;99383.19;1713379;82;21019;-65
2022/06/25 01:46:38;;;;;;;5.62;3.58;;;;;;;16.74;71.69;99386.05;1710596;83;21057;-65
2022/06/25 01:49:06;;;;;;;7.33;3.87;;;;;;;16.78;71.52;99388.34;1691017;82;21188;-66
2022/06/25 01:51:32;;;;;;;5.70;3.83;;;;;;;16.77;71.50;99383.11;1706602;83;21114;-66
2022/06/25 01:54:01;;;;;;;8.20;3.77;;;;;;;16.76;71.57;99389.28;1726806;83;21470;-66
2022/06/25 01:56:29;;;;;;;4.00;3.60;;;;;;;16.76;71.63;99389.86;1700827;84;21103;-65
2022/06/25 01:58:57;;;;;;;6.87;4.22;;;;;;;16.76;71.62;99383.72;1701263;84;21027;-66
2022/06/25 02:01:24;;;;;;;4.55;3.65;;;;;;;16.76;71.73;99397.63;1727073;83;21127;-65
2022/06/25 02:03:51;;;;;;;7.20;3.90;;;;;;;16.76;71.69;99392.06;1720695;81;21080;-66
2022/06/25 02:06:18;;;;;;;6.40;4.00;;;;;;;16.77;71.73;99388.09;1726223;81;21083;-65
2022/06/25 02:08:45;;;;;;;4.92;3.62;;;;;;;16.75;71.60;99383.48;1710729;81;22051;-66
2022/06/25 02:11:12;;;;;;;13.08;3.90;;;;;;;16.75;71.56;99389.64;1700733;84;21526;-65
2022/06/25 02:13:38;;;;;;;10.88;4.20;;;;;;;16.72;71.60;99388.39;1727400;83;21811;-66
2022/06/25 02:16:05;;;;;;;8.48;4.12;;;;;;;16.71;71.80;99384.00;1700567;84;21085;-66
2022/06/25 02:18:34;;;;;;;11.25;4.03;;;;;;;16.69;71.67;99384.13;1722967;83;21505;-66
2022/06/25 02:21:03;;;;;;;7.22;3.77;;;;;;;16.66;71.70;99388.47;1702454;83;21021;-66
2022/06/25 02:23:33;;;;;;;10.95;4.30;;;;;;;16.67;71.82;99387.28;1715951;83;21008;-65
2022/06/25 02:26:00;;;;;;;4.87;3.47;;;;;;;16.69;71.96;99390.52;1716591;83;21488;-65
2022/06/25 02:28:26;;;;;;;4.12;3.12;;;;;;;16.67;72.01;99392.27;1716523;83;21024;-64
2022/06/25 02:30:52;;;;;;;6.97;3.62;;;;;;;16.67;72.30;99386.70;1716348;83;21111;-64
2022/06/25 02:33:23;;;;;;;6.80;4.20;;;;;;;16.69;72.39;99391.91;1696209;83;21064;-65
2022/06/25 02:35:51;;;;;;;4.62;3.05;;;;;;;16.70;72.59;99385.16;1716563;82;21086;-64
2022/06/25 02:38:19;;;;;;;5.67;3.98;;;;;;;16.70;72.65;99386.55;1729568;83;21289;-65
2022/06/25 02:40:49;;;;;;;7.87;3.95;;;;;;;16.72;72.59;99387.00;1728939;83;21042;-66
2022/06/25 02:43:16;;;;;;;7.80;3.60;;;;;;;16.74;72.53;99393.58;1725945;83;21111;-66
2022/06/25 02:45:44;;;;;;;7.42;3.80;;;;;;;16.75;72.36;99391.04;1713801;82;21032;-65
2022/06/25 02:48:11;;;;;;;11.22;5.28;;;;;;;16.79;72.35;99394.11;1727777;81;21006;-65
2022/06/25 02:50:40;;;;;;;13.93;4.25;;;;;;;16.82;72.13;99393.16;1751761;81;21563;-65
2022/06/25 02:53:08;;;;;;;7.35;4.12;;;;;;;16.86;71.91;99395.41;1712029;81;21023;-65
2022/06/25 03:01:06;;;;;;;6.45;4.25;;;;;;;16.99;71.32;99395.48;1728772;82;21666;-66
2022/06/25 03:03:34;;;;;;;6.62;4.10;;;;;;;17.02;71.23;99400.34;1710273;81;21323;-65
2022/06/25 03:06:02;;;;;;;9.35;4.22;;;;;;;17.07;71.07;99402.02;1753015;81;21552;-66
2022/06/25 03:08:30;;;;;;;25.97;4.97;;;;;;;17.13;71.04;99401.14;1752723;81;21035;-65
2022/06/25 03:10:57;;;;;;;9.75;4.05;;;;;;;17.19;70.83;99406.64;1752326;81;21094;-65
2022/06/25 03:13:23;;;;;;;10.08;4.50;;;;;;;17.27;70.70;99408.97;1753196;81;21050;-66
2022/06/25 03:15:50;;;;;;;11.43;3.85;;;;;;;17.34;70.55;99408.30;1718112;83;21768;-66
2022/06/25 03:18:20;;;;;;;13.05;4.87;;;;;;;17.38;70.45;99403.61;1752589;81;21560;-66
2022/06/25 03:20:46;;;;;;;9.18;4.28;;;;;;;17.41;70.51;99400.09;1748695;81;21062;-66
2022/06/25 03:23:13;;;;;;;15.65;4.37;;;;;;;17.45;70.33;99405.72;1726286;82;21119;-66
2022/06/25 03:25:41;;;;;;;17.82;3.50;;;;;;;17.49;70.36;99403.22;1717623;82;21068;-66
2022/06/25 03:28:08;;;;;;;6.97;3.35;;;;;;;17.55;70.43;99404.30;1752497;81;21196;-66
2022/06/25 03:30:37;;;;;;;9.75;4.15;;;;;;;17.60;70.23;99408.17;1751547;81;21098;-65
2022/06/25 03:33:05;;;;;;;6.37;3.98;;;;;;;17.64;70.61;99414.02;1752764;81;21074;-66
2022/06/25 03:35:42;;;;;;;4.15;3.40;;;;;;;17.70;70.45;99413.13;1733707;81;21065;-65
2022/06/25 03:38:13;;;;;;;5.78;3.52;;;;;;;17.79;70.25;99417.64;1717927;83;21072;-65
2022/06/25 03:40:41;;;;;;;7.72;3.90;;;;;;;17.87;70.18;99417.98;1686979;83;21459;-66
2022/06/25 03:43:11;;;;;;;7.22;3.55;;;;;;;17.94;70.07;99411.14;1687826;84;21046;-65
2022/06/25 03:45:38;;;;;;;5.00;3.40;;;;;;;18.03;69.83;99415.06;1652684;84;21012;-65
2022/06/25 03:48:07;;;;;;;5.90;3.40;;;;;;;18.11;69.65;99415.39;1720815;83;21031;-65
2022/06/25 03:50:36;;;;;;;4.78;3.42;;;;;;;18.23;69.62;99417.78;1715585;83;21016;-65
2022/06/25 03:53:02;;;;;;;13.08;3.98;;;;;;;18.33;69.66;99419.92;1716259;83;21152;-65
2022/06/25 03:55:30;;;;;;;5.28;3.30;;;;;;;18.45;69.74;99427.84;1708953;83;21040;-66
2022/06/25 03:57:56;;;;;;;11.08;3.10;;;;;;;18.56;69.54;99432.20;1702003;83;21064;-66
2022/06/25 04:00:26;;;;;;;5.67;3.10;;;;;;;18.66;69.31;99428.76;1701219;83;21091;-66
2022/06/25 04:02:54;;;;;;;7.00;3.20;;;;;;;18.75;68.72;99430.45;1712370;81;21721;-65
2022/06/25 04:05:25;;;;;;;9.33;2.95;;;;;;;18.83;68.53;99429.36;1715632;83;21240;-66
2022/06/25 04:07:53;;;;;;;5.90;3.22;;;;;;;18.92;67.98;99429.08;1679967;84;21063;-65
2022/06/25 04:10:21;;;;;;;11.03;3.22;;;;;;;19.02;67.51;99430.39;1719516;83;21027;-67
2022/06/25 04:12:48;;;;;;;4.10;3.27;;;;;;;19.11;67.30;99431.53;1721311;82;21063;-66
2022/06/25 04:15:15;;;;;;;6.40;2.85;;;;;;;19.21;66.77;99440.59;1720651;82;21130;-65
2022/06/25 04:17:44;;;;;;;5.22;2.85;;;;;;;19.29;66.68;99440.92;1719568;82;21091;-66
2022/06/25 04:20:11;;;;;;;7.10;2.72;;;;;;;19.38;66.65;99444.78;1721314;83;21018;-65
2022/06/25 04:22:37;;;;;;;4.58;2.58;;;;;;;19.45;65.83;99439.28;1720447;83;21062;-65
2022/06/25 04:25:07;;;;;;;6.30;3.00;;;;;;;19.54;65.04;99448.75;1721652;83;21041;-65
2022/06/25 04:30:23;;;;;;;8.15;3.08;;;;;;;19.74;64.26;99449.93;1721440;82;21509;-65
2022/06/25 04:32:54;;;;;;;10.05;2.90;;;;;;;19.83;63.92;99451.02;1721352;82;21096;-66
2022/06/25 04:35:22;;;;;;;7.60;2.80;;;;;;;19.91;63.81;99450.47;1683332;83;21534;-66
2022/06/25 04:37:49;;;;;;;3.90;2.60;;;;;;;19.98;63.70;99454.73;1658252;85;21481;-66
2022/06/25 04:40:18;;;;;;;9.08;3.15;;;;;;;20.05;63.48;99458.22;1722521;83;21034;-64
2022/06/25 04:42:46;;;;;;;3.58;3.20;;;;;;;20.12;62.84;99461.08;1721029;83;21148;-66
2022/06/25 04:45:14;;;;;;;7.20;2.80;;;;;;;20.19;62.42;99469.53;1723455;82;21600;-65
2022/06/25 04:47:42;;;;;;;5.45;3.05;;;;;;;20.24;61.94;99461.38;1714769;83;21030;-66
2022/06/25 04:50:22;;;;;;;5.97;3.30;;;;;;;20.30;61.47;99467.42;1722074;83;21400;-66
2022/06/25 04:52:49;;;;;;;4.83;3.40;;;;;;;20.37;61.24;99468.84;1718704;83;21050;-66
2022/06/25 04:55:19;;;;;;;5.70;3.20;;;;;;;20.43;60.95;99467.31;1693968;83;21142;-66
2022/06/25 04:57:48;;;;;;;4.28;2.65;;;;;;;20.48;60.36;99463.92;1654241;85;21020;-66
2022/06/25 05:00:33;;;;;;;3.80;2.77;;;;;;;20.53;60.21;99464.38;1688700;83;21511;-66
2022/06/25 05:03:02;;;;;;;4.65;3.27;;;;;;;20.61;60.03;99469.41;1701252;82;22067;-67
2022/06/25 05:05:29;;;;;;;9.00;2.80;;;;;;;20.67;59.51;99474.05;1707407;83;21052;-67
2022/06/25 05:07:58;;;;;;;8.33;3.08;;;;;;;20.71;59.52;99479.67;1658601;84;21250;-66
2022/06/25 05:10:27;;;;;;;4.92;2.98;;;;;;;20.76;59.34;99479.30;1696873;83;21573;-67
2022/06/25 05:13:12;;;;;;;4.67;2.75;;;;;;;20.82;59.49;99481.92;1725023;83;21123;-67
2022/06/25 05:15:41;;;;;;;3.85;2.47;;;;;;;20.88;59.77;99482.37;1722977;83;21055;-66
2022/06/25 05:18:11;;;;;;;5.30;2.85;;;;;;;20.97;59.65;99482.83;1726550;82;20992;-68
2022/06/25 05:20:40;;;;;;;2.62;2.35;;;;;;;21.04;59.05;99477.86;1723909;82;21244;-66
2022/06/25 05:23:08;;;;;;;5.90;2.77;;;;;;;21.10;58.80;99481.09;1724393;83;21004;-67
2022/06/25 05:25:35;;;;;;;2.98;2.50;;;;;;;21.14;58.57;99479.09;1723188;83;21115;-66
2022/06/25 05:28:02;;;;;;;4.85;2.60;;;;;;;21.20;57.99;99485.94;1725500;83;21047;-66
2022/06/25 05:30:29;;;;;;;7.80;2.77;;;;;;;21.25;57.68;99484.16;1694048;83;21076;-66
2022/06/25 05:32:55;;;;;;;3.25;2.58;;;;;;;21.30;57.54;99492.78;1725295;83;22195;-66
2022/06/25 05:35:25;;;;;;;15.58;2.75;;;;;;;21.35;57.37;99492.98;1725096;81;21090;-67
2022/06/25 05:37:53;;;;;;;3.77;2.37;;;;;;;21.40;57.34;99492.02;1675425;84;21082;-65
2022/06/25 05:40:20;;;;;;;3.17;2.87;;;;;;;21.47;57.36;99487.62;1687650;84;21015;-67
2022/06/25 05:42:47;;;;;;;4.80;2.72;;;;;;;21.53;57.35;99491.63;1705900;83;21025;-66
2022/06/25 05:45:15;;;;;;;5.17;2.95;;;;;;;21.59;57.14;99497.07;1715156;82;21539;-67
2022/06/25 05:47:42;;;;;;;11.57;3.33;;;;;;;21.65;57.06;99491.27;1716428;83;21571;-66
2022/06/25 05:50:08;;;;;;;8.63;2.80;;;;;;;21.70;56.71;99498.48;1698783;83;21568;-68
2022/06/25 05:52:36;;;;;;;3.62;2.80;;;;;;;21.77;56.73;99499.09;1660503;83;21087;-66
2022/06/25 05:55:05;;;;;;;9.68;3.10;;;;;;;21.81;56.50;99501.34;1693163;83;21020;-67
2022/06/25 05:57:32;;;;;;;4.42;2.98;;;;;;;21.89;56.40;99495.14;1698465;83;21163;-67
2022/06/25 06:00:01;;;;;;;7.67;3.30;;;;;;;21.95;56.14;99491.34;1698807;83;21075;-66
2022/06/25 06:02:28;;;;;;;9.20;2.50;;;;;;;22.00;56.13;99495.97;1698223;83;21099;-66
2022/06/25 06:04:55;;;;;;;4.00;2.50;;;;;;;22.07;55.68;99496.58;1688415;83;21347;-67
2022/06/25 06:07:22;;;;;;;3.05;2.42;;;;;;;22.12;55.30;99504.59;1703126;83;21047;-68
2022/06/25 06:09:48;;;;;;;3.00;2.70;;;;;;;22.19;54.89;99510.00;1708099;83;21593;-67
2022/06/25 06:12:14;;;;;;;6.95;2.92;;;;;;;22.23;54.95;99508.78;1707688;83;21031;-66
2022/06/25 06:14:42;;;;;;;8.63;2.80;;;;;;;22.29;54.73;99510.60;1692698;83;21046;-67
2022/06/25 06:17:11;;;;;;;3.62;2.67;;;;;;;22.32;53.79;99512.59;1697382;83;21139;-67
2022/06/25 06:19:39;;;;;;;5.95;3.05;;;;;;;22.35;53.86;99508.98;1695522;83;21009;-66
2022/06/25 06:22:07;;;;;;;2.45;1.98;;;;;;;22.41;53.89;99507.17;1705178;83;21556;-67
2022/06/25 06:24:35;;;;;;;4.12;2.58;;;;;;;22.46;54.24;99508.98;1699932;83;21077;-66
2022/06/25 06:27:01;;;;;;;7.75;3.00;;;;;;;22.53;54.59;99510.98;1676281;83;21602;-66
2022/06/25 06:29:30;;;;;;;5.00;2.37;;;;;;;22.60;54.05;99509.55;1679409;83;21042;-67
2022/06/25 06:32:00;;;;;;;10.18;2.90;;;;;;;22.65;53.71;99497.75;1679738;83;21622;-66
2022/06/25 06:34:27;;;;;;;4.03;2.77;;;;;;;22.68;53.76;99500.56;1677493;83;21934;-66
2022/06/25 06:36:53;;;;;;;4.40;2.65;;;;;;;22.74;53.61;99502.34;1688952;82;21077;-66
2022/06/25 06:39:20;;;;;;;4.70;2.70;;;;;;;22.78;53.55;99492.50;1700148;82;21034;-66
2022/06/25 06:41:46;;;;;;;9.70;2.60;;;;;;;22.82;53.27;99500.33;1707158;82;21086;-67
2022/06/25 06:44:14;;;;;;;7.17;2.70;;;;;;;22.86;53.11;99508.13;1710850;82;21044;-66
2022/06/25 06:46:42;;;;;;;8.18;2.72;;;;;;;22.90;53.09;99506.13;1712552;82;21889;-67
2022/06/25 06:49:10;;;;;;;3.50;2.55;;;;;;;22.96;53.03;99501.68;1711884;82;21048;-67
2022/06/25 06:51:38;;;;;;;2.62;2.37;;;;;;;23.05;53.70;99501.25;1687436;84;21104;-66
2022/06/25 06:54:09;;;;;;;3.12;2.33;;;;;;;23.13;52.97;99500.64;1724226;82;21098;-66
2022/06/25 06:56:36;;;;;;;2.40;2.12;;;;;;;23.22;53.54;99504.39;1697258;84;21081;-65
2022/06/25 06:59:03;;;;;;;3.30;2.25;;;;;;;23.31;52.91;99506.77;1718008;82;21148;-66
2022/06/25 07:01:29;;;;;;;4.50;2.30;;;;;;;23.40;52.39;99508.58;1700382;83;21070;-65
2022/06/25 07:03:57;;;;;;;2.87;2.37;;;;;;;23.50;52.62;99509.73;1718105;82;21492;-66
2022/06/25 07:06:26;;;;;;;9.70;2.50;;;;;;;23.58;51.76;99514.10;1714598;82;21131;-66
2022/06/25 07:08:52;;;;;;;3.60;2.45;;;;;;;23.68;51.60;99522.27;1704746;83;21042;-67
2022/06/25 07:11:29;;;;;;;5.05;2.12;;;;;;;23.78;51.47;99517.02;1727848;82;21107;-65
2022/06/25 07:14:01;;;;;;;4.53;2.30;;;;;;;23.89;49.86;99521.14;1725445;82;21058;-65
2022/06/25 07:16:28;;;;;;;2.20;1.90;;;;;;;24.00;49.18;99519.08;1725243;82;21565;-66
2022/06/25 07:18:57;;;;;;;3.55;1.70;;;;;;;24.11;48.89;99513.35;1706605;82;21041;-67
2022/06/25 07:21:24;;;;;;;3.47;1.90;;;;;;;24.21;48.40;99511.69;1714227;82;21703;-66
2022/06/25 07:23:50;;;;;;;5.62;2.40;;;;;;;24.33;49.08;99512.42;1719811;82;21677;-66
2022/06/25 07:26:19;;;;;;;2.33;1.90;;;;;;;24.45;48.18;99518.93;1704264;84;21047;-66
2022/06/25 07:28:47;;;;;;;4.05;2.10;;;;;;;24.53;47.54;99514.05;1717692;82;21481;-66
2022/06/25 07:31:17;;;;;;;5.60;1.87;;;;;;;24.61;46.93;99524.62;1717108;82;21027;-66
2022/06/25 07:33:46;;;;;;;2.77;1.92;;;;;;;24.56;46.36;99525.88;1718334;82;21122;-68
2022/06/25 07:36:12;;;;;;;5.95;3.62;;;;;;;24.50;46.13;99523.30;1725195;81;21150;-66
2022/06/25 07:38:40;;;;;;;6.58;2.10;;;;;;;24.43;45.90;99516.53;1739016;81;20984;-66
2022/06/25 07:41:07;;;;;;;5.60;2.30;;;;;;;24.40;46.00;99517.97;1736170;81;21008;-66
2022/06/25 07:43:36;;;;;;;3.25;2.40;;;;;;;24.42;46.50;99517.77;1733663;81;21066;-66
2022/06/25 07:46:04;;;;;;;2.50;1.87;;;;;;;24.49;46.77;99518.30;1739200;81;21060;-66
2022/06/25 07:48:36;;;;;;;3.87;2.00;;;;;;;24.54;46.11;99518.45;1676967;83;21832;-66
2022/06/25 07:53:51;;;;;;;6.70;1.87;;;;;;;24.57;45.65;99514.02;1713193;81;21086;-67
2022/06/25 07:56:18;;;;;;;5.72;1.82;;;;;;;24.55;45.05;99514.41;1746811;81;21004;-65
2022/06/25 07:58:46;;;;;;;3.42;2.05;;;;;;;24.56;45.34;99521.66;1731473;81;21509;-66
2022/06/25 08:01:12;;;;;;;3.25;1.90;;;;;;;24.68;46.29;99519.70;1738362;81;21838;-65
2022/06/25 08:03:38;;;;;;;3.45;1.85;;;;;;;24.84;46.44;99520.38;1742285;81;21013;-65
2022/06/25 08:06:05;;;;;;;5.15;2.70;;;;;;;24.98;46.48;99523.06;1703076;82;21057;-66
2022/06/25 08:08:31;;;;;;;3.25;1.90;;;;;;;25.03;45.58;99515.56;1738478;81;21070;-66
2022/06/25 08:10:58;;;;;;;5.22;2.47;;;;;;;25.04;44.99;99527.01;1738583;81;21115;-65
2022/06/25 08:13:26;;;;;;;5.72;1.92;;;;;;;25.04;45.49;99525.59;1737559;81;21250;-66
2022/06/25 08:15:54;;;;;;;5.60;2.22;;;;;;;25.13;46.05;99522.91;1719277;83;21102;-66
2022/06/25 08:18:23;;;;;;;2.55;2.05;;;;;;;25.23;45.48;99524.00;1736041;80;21029;-67
2022/06/25 08:20:50;;;;;;;4.15;2.25;;;;;;;25.34;45.28;99521.84;1734977;81;21052;-67
2022/06/25 08:23:16;;;;;;;3.12;2.00;;;;;;;25.44;45.19;99518.69;1702315;82;21496;-66
2022/06/25 08:25:42;;;;;;;4.47;1.80;;;;;;;25.47;44.36;99520.66;1706813;82;21137;-66
2022/06/25 08:28:11;;;;;;;4.33;2.20;;;;;;;25.40;44.36;99520.13;1706722;82;21027;-67
2022/06/25 08:30:41;;;;;;;9.25;2.25;;;;;;;25.37;45.50;99511.72;1715720;82;21066;-66
2022/06/25 08:33:06;;;;;;;4.33;2.00;;;;;;;25.43;45.60;99518.50;1721889;82;21110;-67
2022/06/25 08:35:36;;;;;;;6.53;2.02;;;;;;;25.56;44.74;99513.69;1727738;82;21077;-66
2022/06/25 08:38:04;;;;;;;3.90;2.42;;;;;;;25.66;45.14;99521.86;1723576;82;22133;-66
2022/06/25 08:40:32;;;;;;;12.68;3.37;;;;;;;25.80;44.92;99518.02;1704579;82;21078;-66
2022/06/25 08:43:01;;;;;;;6.53;2.40;;;;;;;25.91;45.38;99518.67;1716444;82;21023;-66
2022/06/25 08:45:30;;;;;;;6.53;1.80;;;;;;;26.06;46.23;99514.20;1715386;82;21506;-68
2022/06/25 08:47:59;;;;;;;5.03;2.72;;;;;;;26.21;45.71;99521.22;1716635;82;21407;-66
2022/06/25 08:50:30;;;;;;;3.00;1.85;;;;;;;26.29;44.47;99519.70;1685074;82;21370;-67
2022/06/25 08:53:01;;;;;;;12.03;2.33;;;;;;;26.24;43.75;99521.77;1710618;82;21145;-67
2022/06/25 08:55:36;;;;;;;4.55;2.08;;;;;;;26.21;44.17;99516.98;1708337;82;21061;-66
2022/06/25 08:58:05;;;;;;;3.33;2.45;;;;;;;26.29;45.20;99518.29;1723878;82;21751;-67
2022/06/25 09:00:37;;;;;;;3.72;2.27;;;;;;;26.42;45.31;99513.66;1716322;82;21148;-66
2022/06/25 09:03:05;;;;;;;6.60;2.17;;;;;;;26.54;44.50;99514.25;1720118;81;21252;-67
2022/06/25 09:05:40;;;;;;;4.08;2.17;;;;;;;26.58;43.28;99517.19;1720775;82;21093;-67
2022/06/25 09:08:12;;;;;;;3.92;2.30;;;;;;;26.49;42.42;99520.56;1701061;82;21118;-67
2022/06/25 09:10:42;;;;;;;11.85;3.05;;;;;;;26.33;42.04;99514.77;1718049;82;21035;-67
2022/06/25 09:13:11;;;;;;;1.60;1.50;;;;;;;26.19;43.01;99518.63;1712259;82;21109;-65
2022/06/25 09:15:43;;;;;;;4.35;2.30;;;;;;;26.20;42.48;99516.81;1711400;82;21537;-67
2022/06/25 09:18:21;;;;;;;2.72;1.75;;;;;;;26.23;43.26;99507.48;1711507;82;21011;-66
2022/06/25 09:21:02;;;;;;;5.58;1.70;;;;;;;26.36;43.66;99522.41;1716407;82;21100;-67
2022/06/25 09:23:35;;;;;;;2.33;2.02;;;;;;;26.53;43.75;99512.67;1739187;81;21013;-68
2022/06/25 09:26:10;;;;;;;7.67;1.87;;;;;;;26.66;43.34;99513.64;1740425;81;21037;-68
2022/06/25 09:28:44;;;;;;;4.75;2.08;;;;;;;26.69;42.55;99518.41;1743129;81;21817;-65
2022/06/25 09:31:10;;;;;;;5.00;2.10;;;;;;;26.68;42.30;99516.80;1736450;81;21090;-65
2022/06/25 09:33:39;;;;;;;2.60;2.12;;;;;;;26.65;41.98;99523.32;1716452;82;21011;-66
2022/06/25 09:36:10;;;;;;;5.40;2.17;;;;;;;26.60;41.75;99518.17;1740943;81;21076;-64
2022/06/25 09:38:51;;;;;;;3.27;2.05;;;;;;;26.58;42.08;99526.30;1717398;82;21020;-65
2022/06/25 09:41:17;;;;;;;5.12;2.15;;;;;;;26.65;42.81;99510.61;1728067;81;21060;-65
2022/06/25 09:43:47;;;;;;;3.17;2.17;;;;;;;26.79;43.70;99513.79;1700676;82;21035;-64
2022/06/25 09:46:16;;;;;;;5.97;2.00;;;;;;;26.96;43.81;99513.27;1711261;82;21127;-65
2022/06/25 09:48:45;;;;;;;4.47;2.10;;;;;;;27.13;43.11;99509.73;1713710;82;21061;-67
2022/06/25 09:51:38;;;;;;;;;;;;;;;;;;;;;
2022/06/25 09:53:51;;;;;;;5.60;2.12;;;;;;;27.32;41.97;99506.11;1707363;82;21834;-66
2022/06/25 09:56:27;;;;;;;6.00;3.12;;;;;;;27.39;42.04;99512.83;1727839;81;21144;-64
2022/06/25 09:58:57;;;;;;;3.80;2.30;;;;;;;27.47;42.09;99508.61;1714811;82;21045;-66
2022/06/25 10:01:27;;;;;;;9.05;2.27;;;;;;;27.59;41.82;99512.80;1725518;81;22163;-67
2022/06/25 10:03:54;;;;;;;4.00;2.12;;;;;;;27.72;42.70;99516.40;1716098;82;21464;-68
2022/06/25 10:06:23;;;;;;;18.65;4.22;;;;;;;27.81;42.15;99518.80;1665619;82;21103;-67
2022/06/25 10:08:57;;;;;;;4.62;2.15;;;;;;;27.81;40.31;99515.16;1714959;82;21060;-67
2022/06/25 10:11:28;;;;;;;4.05;1.77;;;;;;;27.79;40.28;99512.00;1711342;82;21039;-66
2022/06/25 10:13:57;;;;;;;2.45;1.82;;;;;;;27.87;40.39;99515.44;1716325;82;22252;-67
2022/06/25 10:16:28;;;;;;;4.95;2.60;;;;;;;27.97;39.45;99522.08;1708368;82;21054;-67
2022/06/25 10:18:55;;;;;;;2.65;2.30;;;;;;;28.02;39.83;99511.03;1725914;82;21142;-67
2022/06/25 10:21:24;;;;;;;6.40;2.15;;;;;;;28.00;38.37;99511.28;1711787;82;21075;-67
2022/06/25 10:23:57;;;;;;;3.65;1.98;;;;;;;27.90;39.90;99507.48;1711009;82;21034;-67
2022/06/25 10:26:25;;;;;;;1.77;1.65;;;;;;;27.87;40.18;99510.59;1716032;82;21121;-67
2022/06/25 10:28:52;;;;;;;6.70;2.37;;;;;;;27.83;39.14;99501.38;1718446;82;21150;-66
2022/06/25 10:31:20;;;;;;;2.58;1.82;;;;;;;27.79;39.17;99506.34;1713336;82;21167;-67
2022/06/25 10:34:03;;;;;;;7.62;2.12;;;;;;;27.81;39.72;99500.40;1709895;82;21100;-67
2022/06/25 10:36:47;;;;;;;12.93;2.08;;;;;;;27.93;40.45;99504.57;1714401;82;21666;-66
2022/06/25 10:39:28;;;;;;;6.60;2.17;;;;;;;28.08;40.63;99508.45;1702953;83;21059;-66
2022/06/25 10:45:16;;;;;;;3.85;2.42;;;;;;;28.26;39.70;99505.20;1704397;83;21153;-67
2022/06/25 10:47:54;;;;;;;1.98;1.87;;;;;;;28.35;39.56;99506.63;1704129;83;21058;-66
2022/06/25 10:50:28;;;;;;;2.55;1.65;;;;;;;28.42;39.29;99502.20;1696888;83;21127;-67
2022/06/25 10:53:10;;;;;;;;;;;;;;;28.35;37.45;99508.86;1713539;83;21090;-66
2022/06/25 10:55:53;;;;;;;3.50;1.80;;;;;;;28.30;38.79;99510.77;1709976;83;20449;-66
2022/06/25 10:58:22;;;;;;;3.50;1.77;;;;;;;28.40;38.48;99511.15;1706941;83;21108;-66
2022/06/25 11:00:52;;;;;;;5.05;1.90;;;;;;;28.54;38.80;99510.59;1704488;83;21078;-66
2022/06/25 11:03:36;;;;;;;6.70;1.80;;;;;;;28.62;38.04;99502.08;1702671;83;21038;-65
2022/06/25 11:06:24;;;;;;;13.60;1.70;;;;;;;28.60;36.77;99501.72;1680173;83;21156;-66
2022/06/25 11:08:51;;;;;;;8.63;2.25;;;;;;;28.54;37.95;99502.88;1697278;83;21018;-67
2022/06/25 11:11:30;;;;;;;3.10;1.92;;;;;;;28.61;38.76;99503.30;1699829;83;21839;-67
2022/06/25 11:13:57;;;;;;;3.20;1.80;;;;;;;28.68;38.45;99504.53;1703530;83;21100;-66
2022/06/25 11:16:24;;;;;;;2.35;2.00;;;;;;;28.78;38.14;99502.64;1700487;83;21118;-66
2022/06/25 11:18:55;;;;;;;2.83;1.50;;;;;;;28.83;37.62;99497.05;1691276;84;21063;-67
2022/06/25 11:21:37;;;;;;;3.17;1.92;;;;;;;28.86;37.05;99502.45;1668906;84;21099;-66
2022/06/25 11:24:26;;;;;;;1.95;1.70;;;;;;;28.83;36.11;99505.55;1694719;83;21577;-66
2022/06/25 11:29:52;;;;;;;4.35;2.02;;;;;;;28.62;37.11;99510.58;1692472;83;21017;-67
2022/06/25 11:32:25;;;;;;;5.58;2.25;;;;;;;28.64;37.95;99507.30;1697028;83;21471;-66
2022/06/25 11:34:59;;;;;;;1.85;1.75;;;;;;;28.69;38.22;99511.01;1698080;83;21538;-66
2022/06/25 11:37:31;;;;;;;2.55;1.95;;;;;;;28.72;38.41;99505.86;1698449;82;21113;-66
2022/06/25 11:39:59;;;;;;;3.40;1.85;;;;;;;28.82;37.66;99496.08;1725542;81;21012;-66
2022/06/25 11:42:25;;;;;;;6.30;2.30;;;;;;;28.91;38.31;99499.07;1718093;82;21659;-67
2022/06/25 11:44:56;;;;;;;11.05;2.70;;;;;;;28.99;37.91;99499.06;1708201;82;21555;-66
2022/06/25 11:47:26;;;;;;;8.95;1.95;;;;;;;28.99;37.85;99504.73;1722447;81;21036;-66
2022/06/25 11:49:53;;;;;;;5.58;2.37;;;;;;;28.90;36.62;99508.83;1708196;82;21156;-67
2022/06/25 11:52:22;;;;;;;2.98;1.80;;;;;;;28.76;37.02;99504.34;1681412;83;21053;-67
2022/06/25 11:54:49;;;;;;;3.45;2.00;;;;;;;28.65;36.58;99504.02;1727271;81;21087;-66
2022/06/25 11:57:27;;;;;;;6.78;1.90;;;;;;;28.65;38.03;99501.19;1706890;83;21508;-66
2022/06/25 11:59:55;;;;;;;4.17;2.37;;;;;;;28.74;38.07;99490.63;1725905;81;21107;-66
2022/06/25 12:02:24;;;;;;;2.83;1.90;;;;;;;28.84;37.67;99485.90;1713047;81;21479;-66
2022/06/25 12:04:57;;;;;;;3.50;2.00;;;;;;;28.87;36.42;99488.44;1720667;82;21107;-66